Terminal Aerodrome Forecast
Issued by NWS

Home | Current Version | Previous Version | Text Only | Print | Product List | Glossary On
Versions: 1 2 3 4 5 6 7 8 9 10 11 12 13 14 15 16 17 18 19 20 21 22 23 24 25 26 27 28 29 30 31 32 33 34 35 36 37 38 39 40 41 42
203
FTUS43 KDVN 261631 AAC
TAFCID
TAF AMD
KCID 261631Z 2617/2712 36006KT 1/4SM -DZ FG VV002
     FM261800 33006KT 1SM -DZ BR OVC004
     FM262000 30008KT 3SM BR OVC008
     FM270400 33004KT 2SM BR OVC004=

USA.gov is the U.S. government's official web portal to all federal, state and local government web resources and services.